Time;durP1;ratioP1;P1;durP2;ratioP2;P2;SDS_P1;SDS_P2;PMS_P1;PMS_P2;Temp;Humidity;BMP_temperature;BMP_pressure;BME280_temperature;BME280_humidity;BME280_pressure;Samples;Min_cycle;Max_cycle;Signal;HPM_P1;HPM_P2
2022/01/13 00:00:20;;;;;;;0.50;0.47;;;2.70;99.90;;;;;;5038277;28;20214;-80
2022/01/13 00:02:47;;;;;;;5.80;3.05;;;2.70;99.90;;;;;;5039640;28;20196;-79
2022/01/13 00:05:14;;;;;;;14.00;9.35;;;2.80;99.90;;;;;;5038904;28;20205;-80
2022/01/13 00:07:41;;;;;;;12.25;7.22;;;2.80;99.90;;;;;;5038941;28;20293;-80
2022/01/13 00:10:09;;;;;;;28.20;6.70;;;2.70;99.90;;;;;;5037996;28;20223;-80
2022/01/13 00:12:40;;;;;;;6.22;5.50;;;2.70;99.90;;;;;;5039051;28;20615;-80
2022/01/13 00:15:20;;;;;;;0.75;0.75;;;2.70;99.90;;;;;;5038599;28;20210;-80
2022/01/13 00:18:04;;;;;;;1.75;1.25;;;2.70;99.90;;;;;;5038713;28;20229;-80
2022/01/13 00:20:47;;;;;;;23.50;8.23;;;2.70;99.90;;;;;;5037947;28;20581;-80
2022/01/13 00:26:01;;;;;;;5.22;3.88;;;2.70;99.90;;;;;;5038302;28;20251;-81
2022/01/13 00:28:28;;;;;;;1.02;0.98;;;2.70;99.90;;;;;;5038749;28;20199;-80
2022/01/13 00:30:56;;;;;;;2.33;2.13;;;2.70;99.90;;;;;;5038478;28;20279;-80
2022/01/13 00:33:26;;;;;;;7.10;4.20;;;2.80;99.90;;;;;;5038165;28;20258;-79
2022/01/13 00:35:54;;;;;;;6.10;2.20;;;2.80;99.90;;;;;;5037621;28;20294;-77
2022/01/13 00:38:21;;;;;;;5.97;4.43;;;2.80;99.90;;;;;;5038673;28;20204;-80
2022/01/13 00:40:48;;;;;;;9.25;6.35;;;2.80;99.90;;;;;;5037690;28;20215;-80
2022/01/13 00:43:15;;;;;;;5.45;4.95;;;2.80;99.90;;;;;;5039854;28;20191;-80
2022/01/13 00:45:42;;;;;;;2.55;2.35;;;2.80;99.90;;;;;;5039114;28;20199;-80
2022/01/13 00:48:09;;;;;;;25.50;19.35;;;2.80;99.90;;;;;;5040062;28;20231;-80
2022/01/13 00:50:37;;;;;;;8.68;4.28;;;2.80;99.90;;;;;;5039454;28;20227;-81
2022/01/13 00:53:04;;;;;;;5.95;3.80;;;2.80;99.90;;;;;;5038485;28;20216;-80
2022/01/13 00:55:45;;;;;;;10.77;2.25;;;2.80;99.90;;;;;;5038143;28;20202;-80
2022/01/13 00:58:12;;;;;;;2.05;1.88;;;2.80;99.90;;;;;;5037883;28;20187;-80
2022/01/13 01:00:39;;;;;;;18.80;8.48;;;2.80;99.90;;;;;;5037378;28;20222;-78
2022/01/13 01:03:07;;;;;;;8.95;6.18;;;2.80;99.90;;;;;;5037876;28;20196;-80
2022/01/13 01:05:34;;;;;;;14.02;9.27;;;2.80;99.90;;;;;;5037790;28;20203;-80
2022/01/13 01:08:02;;;;;;;5.25;4.93;;;2.70;99.90;;;;;;5038123;28;20205;-79
2022/01/13 01:10:29;;;;;;;10.10;9.07;;;2.70;99.90;;;;;;5037412;28;20229;-80
2022/01/13 01:12:56;;;;;;;12.90;6.38;;;2.70;99.90;;;;;;5037565;28;20215;-81
2022/01/13 01:15:24;;;;;;;1.45;0.95;;;2.70;99.90;;;;;;5037454;28;20206;-79
2022/01/13 01:17:59;;;;;;;15.05;9.60;;;2.70;99.90;;;;;;5037988;28;20285;-81
2022/01/13 01:20:30;;;;;;;7.13;5.95;;;2.70;99.90;;;;;;5037394;28;20226;-81
2022/01/13 01:23:10;;;;;;;3.72;3.42;;;2.70;99.90;;;;;;5038295;28;20278;-80
2022/01/13 01:25:45;;;;;;;10.02;3.33;;;2.70;99.90;;;;;;5037266;28;20191;-80
2022/01/13 01:28:18;;;;;;;28.83;18.67;;;2.70;99.90;;;;;;5037955;28;20183;-80
2022/01/13 01:30:48;;;;;;;15.13;6.57;;;2.70;99.90;;;;;;5036973;28;20230;-80
2022/01/13 01:33:18;;;;;;;6.40;5.78;;;2.70;99.90;;;;;;5053210;28;20215;-79
2022/01/13 01:35:45;;;;;;;3.33;3.03;;;2.70;99.90;;;;;;5041960;28;20617;-80
2022/01/13 01:38:11;;;;;;;7.18;3.13;;;2.70;99.90;;;;;;5043127;28;20286;-80
2022/01/13 01:40:40;;;;;;;2.35;2.25;;;2.60;99.90;;;;;;5043823;28;20221;-79
2022/01/13 01:43:06;;;;;;;5.65;1.58;;;2.60;99.90;;;;;;5047507;28;20195;-80
2022/01/13 01:45:42;;;;;;;3.30;2.75;;;2.70;99.90;;;;;;5046672;28;20195;-80
2022/01/13 01:48:10;;;;;;;3.85;2.85;;;2.70;99.90;;;;;;5047069;28;20183;-79
2022/01/13 01:50:38;;;;;;;21.55;3.95;;;2.70;99.90;;;;;;5050107;28;20223;-79
2022/01/13 01:53:06;;;;;;;1.02;1.02;;;2.70;99.90;;;;;;5049248;28;20639;-80
2022/01/13 01:55:33;;;;;;;9.68;6.13;;;2.80;99.90;;;;;;5045604;28;20237;-80
2022/01/13 01:58:01;;;;;;;2.88;2.78;;;2.80;99.90;;;;;;5040709;28;20204;-80
2022/01/13 02:00:27;;;;;;;3.35;2.50;;;2.70;99.90;;;;;;5036731;28;20725;-80
2022/01/13 02:02:56;;;;;;;32.72;9.82;;;2.70;99.90;;;;;;5039379;28;20197;-80
2022/01/13 02:05:23;;;;;;;4.53;3.35;;;2.60;99.90;;;;;;5037558;28;20274;-80
2022/01/13 02:07:50;;;;;;;2.42;2.22;;;2.60;99.90;;;;;;5036987;28;20206;-80
2022/01/13 02:10:17;;;;;;;4.25;4.07;;;2.60;99.90;;;;;;5036076;28;20227;-80
2022/01/13 02:12:48;;;;;;;2.75;2.65;;;2.60;99.90;;;;;;5036666;28;20202;-80
2022/01/13 02:15:32;;;;;;;18.13;7.40;;;2.60;99.90;;;;;;5037126;28;20205;-80
2022/01/13 02:18:02;;;;;;;32.67;6.03;;;2.60;99.90;;;;;;5036330;28;20199;-81
2022/01/13 02:20:45;;;;;;;1.60;1.50;;;2.60;99.90;;;;;;5035969;28;20735;-81
2022/01/13 02:23:12;;;;;;;4.85;4.53;;;2.60;99.90;;;;;;5036576;28;20221;-81
2022/01/13 02:25:39;;;;;;;5.75;2.50;;;2.60;99.90;;;;;;5036929;28;20570;-80
2022/01/13 02:28:06;;;;;;;7.20;4.60;;;2.60;99.90;;;;;;5036713;28;20198;-80
2022/01/13 02:30:32;;;;;;;9.98;7.28;;;2.60;99.90;;;;;;5036239;28;20218;-80
2022/01/13 02:32:59;;;;;;;11.30;2.85;;;2.60;99.90;;;;;;5036217;28;20214;-80
2022/01/13 02:35:34;;;;;;;20.38;9.43;;;2.60;99.90;;;;;;5036562;28;20195;-81
2022/01/13 02:38:02;;;;;;;4.30;2.58;;;2.60;99.90;;;;;;5036091;28;20206;-79
2022/01/13 02:40:29;;;;;;;15.30;6.07;;;2.60;99.90;;;;;;5035827;28;20215;-80
2022/01/13 02:42:56;;;;;;;5.22;4.78;;;2.60;99.90;;;;;;5036013;28;20203;-80
2022/01/13 02:45:31;;;;;;;25.10;7.18;;;2.60;99.90;;;;;;5036062;28;20214;-80
2022/01/13 02:48:25;;;;;;;15.30;10.23;;;2.60;99.90;;;;;;5036265;28;20225;-81
2022/01/13 02:50:53;;;;;;;35.53;6.00;;;2.60;99.90;;;;;;5035256;28;20245;-80
2022/01/13 02:53:21;;;;;;;10.43;2.63;;;2.60;99.90;;;;;;5036381;28;20225;-80
2022/01/13 02:55:48;;;;;;;12.77;9.95;;;2.60;99.90;;;;;;5035737;28;20257;-80
2022/01/13 02:58:15;;;;;;;5.32;4.30;;;2.60;99.90;;;;;;5035373;28;20212;-80
2022/01/13 03:00:43;;;;;;;17.02;7.32;;;2.60;99.90;;;;;;5035898;28;20230;-81
2022/01/13 03:03:12;;;;;;;20.88;4.88;;;2.60;99.90;;;;;;5035851;28;20201;-79
2022/01/13 03:05:39;;;;;;;5.68;2.97;;;2.60;99.90;;;;;;5035664;28;20226;-80
2022/01/13 03:08:08;;;;;;;2.90;2.80;;;2.60;99.90;;;;;;5035806;28;20256;-81
2022/01/13 03:10:37;;;;;;;21.35;9.93;;;2.60;99.90;;;;;;5035466;28;20309;-80
2022/01/13 03:13:05;;;;;;;13.45;6.22;;;2.60;99.90;;;;;;5035271;28;20234;-80
2022/01/13 03:15:32;;;;;;;44.83;5.90;;;2.50;99.90;;;;;;5035530;28;20195;-79
2022/01/13 03:17:58;;;;;;;7.85;5.18;;;2.60;99.90;;;;;;5035856;28;20195;-80
2022/01/13 03:20:25;;;;;;;17.23;12.63;;;2.50;99.90;;;;;;5035645;28;20219;-80
2022/01/13 03:22:52;;;;;;;6.13;5.63;;;2.50;99.90;;;;;;5035526;28;20198;-80
2022/01/13 03:25:22;;;;;;;11.57;7.20;;;2.50;99.90;;;;;;5035661;28;20198;-80
2022/01/13 03:27:55;;;;;;;14.38;10.18;;;2.50;99.90;;;;;;5035358;28;20223;-80
2022/01/13 03:30:22;;;;;;;24.92;11.93;;;2.50;99.90;;;;;;5034870;28;20218;-80
2022/01/13 03:32:49;;;;;;;7.97;6.40;;;2.50;99.90;;;;;;5035927;28;20203;-80
2022/01/13 03:35:16;;;;;;;21.55;9.43;;;2.50;99.90;;;;;;5035424;28;20226;-79
2022/01/13 03:37:42;;;;;;;0.80;0.68;;;2.50;99.90;;;;;;5035403;28;20692;-80
2022/01/13 03:40:10;;;;;;;3.33;3.10;;;2.40;99.90;;;;;;5034971;28;20223;-81
2022/01/13 03:42:37;;;;;;;8.13;5.53;;;2.50;99.90;;;;;;5034818;28;20711;-80
2022/01/13 03:45:06;;;;;;;31.55;7.93;;;2.50;99.90;;;;;;5034450;28;20205;-80
2022/01/13 03:47:33;;;;;;;5.65;3.25;;;2.50;99.90;;;;;;5035615;28;20207;-80
2022/01/13 03:50:00;;;;;;;14.45;5.30;;;2.50;99.90;;;;;;5035148;28;20233;-80
2022/01/13 03:53:01;;;;;;;22.60;9.90;;;2.60;99.90;;;;;;5035085;28;20199;-80
2022/01/13 03:56:04;;;;;;;11.32;4.43;;;2.50;99.90;;;;;;5014733;28;20224;-79
2022/01/13 03:59:36;;;;;;;45.05;11.65;;;2.50;99.90;;;;;;5035428;28;20182;-80
2022/01/13 04:02:09;;;;;;;19.40;5.82;;;2.50;99.90;;;;;;5036369;28;20199;-80
2022/01/13 04:04:38;;;;;;;17.38;8.88;;;2.50;99.90;;;;;;5035384;28;20199;-80
2022/01/13 04:07:19;;;;;;;7.15;6.32;;;2.50;99.90;;;;;;5034877;28;20196;-79
2022/01/13 04:10:25;;;;;;;7.07;3.17;;;2.50;99.90;;;;;;5035536;28;20187;-81
2022/01/13 04:12:52;;;;;;;14.18;10.43;;;2.50;99.90;;;;;;5040607;28;20321;-81
2022/01/13 04:15:20;;;;;;;61.40;6.10;;;2.50;99.90;;;;;;5040782;28;20225;-80
2022/01/13 04:17:49;;;;;;;3.35;3.05;;;2.50;99.90;;;;;;5040758;28;20195;-79
2022/01/13 04:20:16;;;;;;;14.45;7.35;;;2.50;99.90;;;;;;5039672;28;20230;-79
2022/01/13 04:22:43;;;;;;;18.42;14.07;;;2.40;99.90;;;;;;5040798;28;20626;-78
2022/01/13 04:25:10;;;;;;;18.73;7.40;;;2.40;99.90;;;;;;5040813;28;20190;-78
2022/01/13 04:27:42;;;;;;;13.10;4.80;;;2.40;99.90;;;;;;5040781;28;20199;-80
2022/01/13 04:33:07;;;;;;;13.90;6.15;;;2.40;99.90;;;;;;4998954;28;20202;-79
2022/01/13 04:35:34;;;;;;;6.90;6.38;;;2.40;99.90;;;;;;5029390;28;20222;-79
2022/01/13 04:38:01;;;;;;;30.00;14.25;;;2.40;99.90;;;;;;5040183;28;20194;-80
2022/01/13 04:40:28;;;;;;;24.65;12.00;;;2.40;99.90;;;;;;5039602;28;20222;-79
2022/01/13 04:42:56;;;;;;;8.68;7.95;;;2.30;99.90;;;;;;5040138;28;20221;-79
2022/01/13 04:45:25;;;;;;;24.95;12.32;;;2.30;99.90;;;;;;5039899;28;20330;-80
2022/01/13 04:47:53;;;;;;;15.95;6.60;;;2.30;99.90;;;;;;5039753;28;20545;-79
2022/01/13 04:50:23;;;;;;;15.65;7.72;;;2.20;99.90;;;;;;5039503;28;20273;-79
2022/01/13 04:52:50;;;;;;;13.63;7.28;;;2.20;99.90;;;;;;5040410;28;20198;-80
2022/01/13 04:55:23;;;;;;;25.73;15.25;;;2.20;99.90;;;;;;5039874;28;20222;-79
2022/01/13 04:57:50;;;;;;;9.35;5.90;;;2.20;99.90;;;;;;5039939;28;20682;-80
2022/01/13 05:00:17;;;;;;;17.48;6.50;;;2.20;99.90;;;;;;5039728;28;20226;-79
2022/01/13 05:02:44;;;;;;;7.47;3.90;;;2.20;99.90;;;;;;5039472;28;20210;-79
2022/01/13 05:05:11;;;;;;;25.98;8.88;;;2.20;99.90;;;;;;5039230;28;20199;-80
2022/01/13 05:07:39;;;;;;;24.10;5.15;;;2.20;99.90;;;;;;5037978;28;20209;-80
2022/01/13 05:10:07;;;;;;;10.02;8.60;;;2.10;99.90;;;;;;5038066;28;20222;-80
2022/01/13 05:12:39;;;;;;;17.42;4.93;;;2.10;99.90;;;;;;5038454;28;20678;-80
2022/01/13 05:15:08;;;;;;;6.80;5.70;;;2.10;99.90;;;;;;5037574;28;20750;-81
2022/01/13 05:18:01;;;;;;;3.47;3.25;;;2.10;99.90;;;;;;5037297;28;20213;-80
2022/01/13 05:20:29;;;;;;;16.60;10.68;;;2.10;99.90;;;;;;5037159;28;20616;-81
2022/01/13 05:22:57;;;;;;;2.78;2.45;;;2.10;99.90;;;;;;5038714;28;20199;-80
2022/01/13 05:25:24;;;;;;;17.40;11.13;;;2.10;99.90;;;;;;5037791;28;20557;-80
2022/01/13 05:27:51;;;;;;;6.28;5.75;;;2.10;99.90;;;;;;5037510;28;20201;-80
2022/01/13 05:30:19;;;;;;;2.15;2.05;;;2.00;99.90;;;;;;5037438;28;20230;-80
2022/01/13 05:32:46;;;;;;;12.38;8.90;;;2.00;99.90;;;;;;5037821;28;20749;-80
2022/01/13 05:35:15;;;;;;;6.55;4.18;;;2.10;99.90;;;;;;5037488;28;20261;-80
2022/01/13 05:37:42;;;;;;;6.45;4.70;;;2.00;99.90;;;;;;5037350;28;20199;-80
2022/01/13 05:40:12;;;;;;;5.38;4.70;;;2.00;99.90;;;;;;5037586;28;20234;-80
2022/01/13 05:42:39;;;;;;;17.65;11.77;;;2.00;99.90;;;;;;5037311;28;20202;-80
2022/01/13 05:45:13;;;;;;;19.58;8.95;;;2.00;99.90;;;;;;5037191;28;20220;-81
2022/01/13 05:47:41;;;;;;;6.40;6.03;;;2.00;99.90;;;;;;5038154;28;20220;-79
2022/01/13 05:50:08;;;;;;;21.33;10.68;;;2.00;99.90;;;;;;5037667;28;20253;-80
2022/01/13 05:52:35;;;;;;;12.65;10.63;;;2.00;99.90;;;;;;5039107;28;20211;-79
2022/01/13 05:55:03;;;;;;;8.57;6.80;;;1.90;99.90;;;;;;5039103;28;20230;-80
2022/01/13 05:57:31;;;;;;;27.88;6.10;;;1.90;99.90;;;;;;5039047;28;20209;-80
2022/01/13 05:59:58;;;;;;;17.63;9.48;;;1.90;99.90;;;;;;5038343;28;20205;-79
2022/01/13 06:02:25;;;;;;;4.53;3.92;;;1.90;99.90;;;;;;5037213;28;20209;-80
2022/01/13 06:04:52;;;;;;;11.23;5.93;;;1.90;99.90;;;;;;5037025;28;20446;-80
2022/01/13 06:07:18;;;;;;;24.83;10.60;;;1.90;99.90;;;;;;5036656;28;20193;-81
2022/01/13 06:09:45;;;;;;;21.35;7.25;;;1.90;99.90;;;;;;5036700;28;20234;-80
2022/01/13 06:12:12;;;;;;;25.90;14.30;;;1.80;99.90;;;;;;5037193;28;20203;-81
2022/01/13 06:14:40;;;;;;;8.50;6.35;;;1.70;99.90;;;;;;5036703;28;20218;-80
2022/01/13 06:17:07;;;;;;;21.17;9.65;;;1.70;99.90;;;;;;5038973;28;20862;-80
2022/01/13 06:19:33;;;;;;;15.30;5.28;;;1.70;99.90;;;;;;5035952;28;20197;-80
2022/01/13 06:22:00;;;;;;;6.82;4.65;;;1.70;99.90;;;;;;5035816;28;20680;-80
2022/01/13 06:24:27;;;;;;;5.85;5.28;;;1.70;99.90;;;;;;5037258;28;20293;-81
2022/01/13 06:26:53;;;;;;;18.52;13.32;;;1.70;99.90;;;;;;5038024;28;20202;-80
2022/01/13 06:29:20;;;;;;;14.13;8.90;;;1.70;99.90;;;;;;5042877;28;20202;-80
2022/01/13 06:31:48;;;;;;;13.98;5.68;;;1.70;99.90;;;;;;5048310;28;20218;-78
2022/01/13 06:34:15;;;;;;;8.27;2.75;;;1.70;99.90;;;;;;5042046;28;20221;-80
2022/01/13 06:36:42;;;;;;;21.73;12.65;;;1.70;99.90;;;;;;5045094;28;20302;-79
2022/01/13 06:39:08;;;;;;;11.10;7.68;;;1.70;99.90;;;;;;5044740;28;20202;-79
2022/01/13 06:41:39;;;;;;;17.50;10.27;;;1.60;99.90;;;;;;5043822;28;20219;-80
2022/01/13 06:44:06;;;;;;;48.17;6.72;;;1.60;99.90;;;;;;5038436;28;20195;-81
2022/01/13 06:46:33;;;;;;;1.65;1.55;;;1.60;99.90;;;;;;5036822;28;20239;-81
2022/01/13 06:49:01;;;;;;;12.45;8.50;;;1.60;99.90;;;;;;5036168;28;20206;-80
2022/01/13 06:51:28;;;;;;;17.42;11.10;;;1.60;99.90;;;;;;5035852;28;20238;-80
2022/01/13 06:53:55;;;;;;;2.58;2.28;;;1.60;99.90;;;;;;5037198;28;20211;-80
2022/01/13 06:56:24;;;;;;;26.33;12.23;;;1.60;99.90;;;;;;5041362;28;20663;-80
2022/01/13 06:58:51;;;;;;;5.20;4.03;;;1.60;99.90;;;;;;5042273;28;20292;-79
2022/01/13 07:01:20;;;;;;;18.75;9.23;;;1.50;99.90;;;;;;5044112;28;20272;-79
2022/01/13 07:03:47;;;;;;;9.90;7.22;;;1.50;99.90;;;;;;5046135;28;20206;-81
2022/01/13 07:06:15;;;;;;;11.63;10.43;;;1.50;99.90;;;;;;5044484;28;20289;-81
2022/01/13 07:08:42;;;;;;;24.48;8.35;;;1.60;99.90;;;;;;5045762;28;20202;-80
2022/01/13 07:11:09;;;;;;;9.02;6.90;;;1.60;99.90;;;;;;5042064;28;20234;-80
2022/01/13 07:13:36;;;;;;;1.02;0.93;;;1.50;99.90;;;;;;5046609;28;20292;-80
2022/01/13 07:16:03;;;;;;;14.20;10.10;;;1.60;99.90;;;;;;5041479;28;20221;-80
2022/01/13 07:18:30;;;;;;;6.82;6.07;;;1.60;99.90;;;;;;5038628;28;20287;-80
2022/01/13 07:20:57;;;;;;;1.08;1.08;;;1.60;99.90;;;;;;5035068;28;20719;-80
2022/01/13 07:23:25;;;;;;;31.60;10.48;;;1.60;99.90;;;;;;5036342;28;20691;-81
2022/01/13 07:25:52;;;;;;;17.35;7.38;;;1.60;99.90;;;;;;5037157;28;20193;-80
2022/01/13 07:28:18;;;;;;;7.22;5.75;;;1.50;99.90;;;;;;5036041;28;20608;-80
2022/01/13 07:30:45;;;;;;;8.27;7.18;;;1.50;99.90;;;;;;5035256;28;20218;-80
2022/01/13 07:33:12;;;;;;;4.25;4.05;;;1.60;99.90;;;;;;5035878;28;20205;-80
2022/01/13 07:35:39;;;;;;;33.80;11.95;;;1.60;99.90;;;;;;5034979;28;20225;-80
2022/01/13 07:38:05;;;;;;;0.95;0.95;;;1.60;99.90;;;;;;5036296;28;20209;-78
2022/01/13 07:40:34;;;;;;;1.88;1.88;;;1.60;99.90;;;;;;5035697;28;20226;-81
2022/01/13 07:43:02;;;;;;;3.22;2.80;;;1.70;99.90;;;;;;5034852;28;20659;-81
2022/01/13 07:45:28;;;;;;;10.00;4.50;;;1.60;99.90;;;;;;5039151;28;20487;-78
2022/01/13 07:47:55;;;;;;;15.32;11.20;;;1.60;99.90;;;;;;5039342;28;20205;-81
2022/01/13 07:50:22;;;;;;;2.17;2.08;;;1.60;99.90;;;;;;5038763;28;20226;-80
2022/01/13 07:52:48;;;;;;;19.52;11.77;;;1.60;99.90;;;;;;5039439;28;20206;-76
2022/01/13 07:55:15;;;;;;;23.83;11.70;;;1.60;99.90;;;;;;5038695;28;20240;-81
2022/01/13 07:57:44;;;;;;;6.13;3.60;;;1.60;99.90;;;;;;5038548;28;20199;-78
2022/01/13 08:00:13;;;;;;;20.17;5.72;;;1.50;99.90;;;;;;5038102;28;20241;-80
2022/01/13 08:02:40;;;;;;;10.07;5.82;;;1.50;99.90;;;;;;5039550;28;20198;-80
2022/01/13 08:05:08;;;;;;;7.57;6.43;;;1.50;99.90;;;;;;5038149;28;20194;-78
2022/01/13 08:07:35;;;;;;;3.15;3.05;;;1.60;99.90;;;;;;5040856;28;20198;-80
2022/01/13 08:10:02;;;;;;;3.08;2.45;;;1.60;99.90;;;;;;5039577;28;20566;-80
2022/01/13 08:12:28;;;;;;;39.47;13.15;;;1.60;99.90;;;;;;5040184;28;20309;-80
2022/01/13 08:14:56;;;;;;;11.07;7.78;;;1.60;99.90;;;;;;5040136;28;20215;-79
2022/01/13 08:20:09;;;;;;;17.00;8.32;;;1.60;99.90;;;;;;5037818;28;20214;-79
2022/01/13 08:22:37;;;;;;;11.98;7.45;;;1.60;99.90;;;;;;5038542;28;20514;-80
2022/01/13 08:25:04;;;;;;;18.10;11.23;;;1.60;99.90;;;;;;5038387;28;20199;-81
2022/01/13 08:27:31;;;;;;;13.25;9.52;;;1.60;99.90;;;;;;5038527;28;20199;-79
2022/01/13 08:29:59;;;;;;;4.07;2.20;;;1.60;99.90;;;;;;5037895;28;20203;-80
2022/01/13 08:32:25;;;;;;;15.02;9.35;;;1.60;99.90;;;;;;5038391;28;20209;-79
2022/01/13 08:34:52;;;;;;;8.70;6.78;;;1.60;99.90;;;;;;5037701;28;20223;-78
2022/01/13 08:37:19;;;;;;;35.75;9.77;;;1.70;99.90;;;;;;5037935;28;20545;-80
2022/01/13 08:39:46;;;;;;;12.93;2.92;;;1.70;99.90;;;;;;5037790;28;20221;-79
2022/01/13 08:42:13;;;;;;;20.40;4.53;;;1.80;99.90;;;;;;5037928;28;20214;-80
2022/01/13 08:44:41;;;;;;;1.35;1.35;;;1.80;99.90;;;;;;5037581;28;20202;-79
2022/01/13 08:47:10;;;;;;;9.18;6.05;;;1.90;99.90;;;;;;5037735;28;20293;-79
2022/01/13 08:49:37;;;;;;;23.95;14.10;;;1.80;99.90;;;;;;5037749;28;20202;-81
2022/01/13 08:52:05;;;;;;;19.15;6.43;;;1.80;99.90;;;;;;5037583;28;20215;-81
2022/01/13 08:54:31;;;;;;;49.67;9.57;;;1.80;99.90;;;;;;5037893;28;20205;-81
2022/01/13 08:56:59;;;;;;;13.85;7.10;;;1.90;99.90;;;;;;5037022;28;20711;-78
2022/01/13 08:59:25;;;;;;;25.88;11.13;;;1.90;99.90;;;;;;5036419;28;20211;-81
2022/01/13 09:01:53;;;;;;;53.53;23.60;;;1.90;99.90;;;;;;5037329;28;20217;-80
2022/01/13 09:04:22;;;;;;;20.33;10.35;;;1.90;99.90;;;;;;5037653;28;20202;-80
2022/01/13 09:06:48;;;;;;;5.25;4.78;;;1.80;99.90;;;;;;5037538;28;20201;-81
2022/01/13 09:09:15;;;;;;;15.45;8.50;;;1.80;99.90;;;;;;5037478;28;20195;-81
2022/01/13 09:11:42;;;;;;;0.40;0.40;;;1.80;99.90;;;;;;5037265;28;20222;-80
2022/01/13 09:14:09;;;;;;;14.48;8.07;;;1.80;99.90;;;;;;5036982;28;20206;-81
2022/01/13 09:16:42;;;;;;;1.50;1.50;;;1.80;99.90;;;;;;5037258;28;20228;-82
2022/01/13 09:19:11;;;;;;;1.23;0.95;;;1.80;99.90;;;;;;5037741;28;20198;-81
2022/01/13 09:21:40;;;;;;;11.48;7.22;;;1.90;99.90;;;;;;5035944;28;20222;-80
2022/01/13 09:24:09;;;;;;;12.68;6.63;;;2.00;99.90;;;;;;5037072;28;20716;-82
2022/01/13 09:26:36;;;;;;;17.35;10.63;;;2.00;99.90;;;;;;5036897;28;20198;-82
2022/01/13 09:29:04;;;;;;;10.15;3.13;;;2.00;99.90;;;;;;5036815;28;20199;-80
2022/01/13 09:31:31;;;;;;;5.80;5.13;;;2.10;99.90;;;;;;5036884;28;20636;-82
2022/01/13 09:33:58;;;;;;;8.68;5.70;;;2.10;99.90;;;;;;5038570;28;20203;-81
2022/01/13 09:36:25;;;;;;;9.68;4.50;;;2.10;99.90;;;;;;5037073;28;20286;-82
2022/01/13 09:38:53;;;;;;;8.32;4.57;;;2.20;99.90;;;;;;5036976;28;20297;-80
2022/01/13 09:41:23;;;;;;;22.63;6.70;;;2.30;99.90;;;;;;5036961;28;20726;-80
2022/01/13 09:43:50;;;;;;;5.95;4.18;;;2.30;99.90;;;;;;5037547;28;20569;-81
2022/01/13 09:46:17;;;;;;;8.93;5.40;;;2.30;99.90;;;;;;5037529;28;20202;-81
2022/01/13 09:48:46;;;;;;;20.70;10.38;;;2.20;99.90;;;;;;5037364;28;20214;-80
2022/01/13 09:51:13;;;;;;;14.80;10.05;;;2.20;99.90;;;;;;5036145;28;20258;-80
2022/01/13 09:53:40;;;;;;;10.48;5.90;;;2.10;99.90;;;;;;5037023;28;20207;-81
2022/01/13 09:56:08;;;;;;;2.92;2.80;;;2.10;99.90;;;;;;5037473;28;20254;-82
2022/01/13 09:58:35;;;;;;;3.65;3.45;;;2.20;99.90;;;;;;5037146;28;20202;-80
2022/01/13 10:01:02;;;;;;;0.50;0.50;;;2.30;99.90;;;;;;5036743;28;20555;-82
2022/01/13 10:03:30;;;;;;;23.75;9.68;;;2.40;99.90;;;;;;5086441;22;20223;-76
2022/01/13 10:05:59;;;;;;;28.67;11.80;;;2.30;99.90;;;;;;5016229;28;20191;-76
2022/01/13 10:08:42;;;;;;;14.10;5.57;;;2.20;99.90;;;;;;5027745;28;20203;-74
2022/01/13 10:11:27;;;;;;;39.00;11.85;;;2.30;99.90;;;;;;5032674;28;20180;-77
2022/01/13 10:14:14;;;;;;;15.85;9.45;;;2.20;99.90;;;;;;5031942;28;20231;-77
2022/01/13 10:16:50;;;;;;;14.13;7.05;;;2.20;99.90;;;;;;5031984;28;20676;-77
2022/01/13 10:19:31;;;;;;;4.18;3.88;;;2.30;99.90;;;;;;5031017;28;20198;-77
2022/01/13 10:22:00;;;;;;;6.82;6.00;;;2.30;99.90;;;;;;5032486;28;20197;-77
2022/01/13 10:24:28;;;;;;;15.98;11.35;;;2.30;99.90;;;;;;5032518;28;20223;-77
2022/01/13 10:27:11;;;;;;;14.82;6.15;;;2.30;99.90;;;;;;5031895;28;20187;-77
2022/01/13 10:29:44;;;;;;;5.07;4.68;;;2.40;99.90;;;;;;5030811;28;20209;-76
2022/01/13 10:32:13;;;;;;;4.25;4.00;;;2.40;99.90;;;;;;5032178;28;20285;-77
2022/01/13 10:34:42;;;;;;;10.73;3.08;;;2.60;99.90;;;;;;5031986;28;20223;-76
2022/01/13 10:37:13;;;;;;;6.35;6.03;;;2.60;99.90;;;;;;5031749;28;20215;-76
2022/01/13 10:39:51;;;;;;;8.30;7.32;;;2.50;99.90;;;;;;5031357;28;20222;-77
2022/01/13 10:45:29;;;;;;;15.45;4.20;;;2.50;99.90;;;;;;5030919;28;20276;-77
2022/01/13 10:47:58;;;;;;;10.23;6.93;;;2.40;99.90;;;;;;5032099;28;20195;-77
2022/01/13 10:50:30;;;;;;;6.90;5.35;;;2.50;99.90;;;;;;5031565;28;20203;-77
2022/01/13 10:53:03;;;;;;;11.85;6.85;;;2.60;99.90;;;;;;5031820;28;20825;-77
2022/01/13 10:55:31;;;;;;;11.93;7.57;;;2.70;99.90;;;;;;5031643;28;20186;-76
2022/01/13 10:57:59;;;;;;;2.65;2.45;;;2.70;99.90;;;;;;5031397;28;20206;-78
2022/01/13 11:00:28;;;;;;;6.05;4.80;;;2.60;99.90;;;;;;5032910;28;20206;-78
2022/01/13 11:03:04;;;;;;;8.75;6.72;;;2.70;99.90;;;;;;5031998;28;20226;-77
2022/01/13 11:05:33;;;;;;;5.82;5.28;;;2.80;99.90;;;;;;5031775;28;20569;-78
2022/01/13 11:08:03;;;;;;;3.42;3.33;;;2.80;99.90;;;;;;5032220;28;20205;-77
2022/01/13 11:10:31;;;;;;;0.60;0.60;;;2.90;99.90;;;;;;5031223;28;20198;-76
2022/01/13 11:13:02;;;;;;;14.27;11.50;;;3.00;99.90;;;;;;5031749;28;20222;-78
2022/01/13 11:15:29;;;;;;;14.50;3.60;;;3.00;99.90;;;;;;5031360;28;20187;-78
2022/01/13 11:17:58;;;;;;;6.00;3.33;;;3.00;99.90;;;;;;5031602;28;20619;-78
2022/01/13 11:20:26;;;;;;;6.82;5.78;;;3.00;99.90;;;;;;5031130;28;20567;-79
2022/01/13 11:22:55;;;;;;;45.63;10.73;;;2.90;99.90;;;;;;5031241;28;20211;-78
2022/01/13 11:25:26;;;;;;;17.15;5.85;;;2.90;99.90;;;;;;5030996;28;20202;-78
2022/01/13 11:27:53;;;;;;;9.38;8.57;;;2.90;99.90;;;;;;5030998;28;20195;-78
2022/01/13 11:30:24;;;;;;;22.65;12.45;;;3.00;99.90;;;;;;5031310;28;20650;-79
2022/01/13 11:32:51;;;;;;;27.25;16.45;;;3.00;99.90;;;;;;5031677;28;20222;-79
2022/01/13 11:35:23;;;;;;;10.20;4.00;;;2.90;99.90;;;;;;5031323;28;20198;-78
2022/01/13 11:37:51;;;;;;;2.88;2.78;;;3.00;99.90;;;;;;5029701;28;20207;-78
2022/01/13 11:40:36;;;;;;;7.20;6.60;;;3.10;99.90;;;;;;5030094;28;20223;-78
2022/01/13 11:43:04;;;;;;;23.00;12.02;;;3.30;99.90;;;;;;5031156;28;20597;-78
2022/01/13 11:45:39;;;;;;;11.88;7.97;;;3.30;99.90;;;;;;5031037;28;20235;-78
2022/01/13 11:48:16;;;;;;;8.63;4.63;;;3.40;99.90;;;;;;5030936;28;20241;-78
2022/01/13 11:50:47;;;;;;;10.10;7.05;;;3.40;99.90;;;;;;5031328;28;20549;-77
2022/01/13 11:53:28;;;;;;;20.83;9.10;;;3.50;99.90;;;;;;5030920;28;20221;-77
2022/01/13 11:55:58;;;;;;;19.90;12.40;;;3.80;99.90;;;;;;5032106;28;20211;-78
2022/01/13 11:58:31;;;;;;;16.63;6.40;;;3.80;99.90;;;;;;5031394;28;20191;-78
2022/01/13 12:01:11;;;;;;;19.83;13.52;;;4.10;99.90;;;;;;5031019;28;20234;-77
2022/01/13 12:03:41;;;;;;;28.13;14.50;;;4.40;99.90;;;;;;5030984;28;20281;-78
2022/01/13 12:06:08;;;;;;;5.75;4.05;;;4.70;99.90;;;;;;5030917;28;20245;-77
2022/01/13 12:08:37;;;;;;;12.40;7.35;;;5.00;99.90;;;;;;5031300;28;20247;-78
2022/01/13 12:11:04;;;;;;;25.13;11.98;;;5.10;99.90;;;;;;5030595;28;20203;-77
2022/01/13 12:13:35;;;;;;;5.07;4.45;;;5.40;99.90;;;;;;5030571;28;20224;-77
2022/01/13 12:16:04;;;;;;;9.80;8.18;;;5.60;99.90;;;;;;5031250;28;20215;-78
2022/01/13 12:19:06;;;;;;;22.67;11.00;;;5.40;99.90;;;;;;5031475;28;20669;-77
2022/01/13 12:21:37;;;;;;;6.50;6.03;;;5.40;99.90;;;;;;5031194;28;20233;-78
2022/01/13 12:24:05;;;;;;;14.27;7.82;;;5.50;99.90;;;;;;5031041;28;20229;-78
2022/01/13 12:26:56;;;;;;;4.82;1.95;;;5.60;99.90;;;;;;5031266;28;20191;-77
2022/01/13 12:29:27;;;;;;;7.60;6.93;;;5.60;99.90;;;;;;5030802;28;20202;-77
2022/01/13 12:31:58;;;;;;;1.00;0.98;;;5.30;99.90;;;;;;5032867;28;20203;-78
2022/01/13 12:34:47;;;;;;;4.05;3.65;;;5.40;99.90;;;;;;5034160;28;20228;-78
2022/01/13 12:37:28;;;;;;;9.27;5.07;;;5.40;99.90;;;;;;5034164;28;20226;-77
2022/01/13 12:40:01;;;;;;;14.27;7.03;;;5.30;99.90;;;;;;5034388;28;20184;-77
2022/01/13 12:42:33;;;;;;;5.57;3.30;;;5.20;99.90;;;;;;5034467;28;20574;-76
2022/01/13 12:47:46;;;;;;;1.45;1.38;;;5.10;99.90;;;;;;5033873;28;20226;-77
2022/01/13 12:50:17;;;;;;;1.55;1.45;;;5.10;99.90;;;;;;5033638;28;20195;-77
2022/01/13 12:52:43;;;;;;;4.15;3.75;;;5.30;99.90;;;;;;5034043;28;20199;-78
2022/01/13 12:55:11;;;;;;;4.97;4.70;;;5.40;99.90;;;;;;5034065;28;20199;-77
2022/01/13 12:57:48;;;;;;;0.50;0.40;;;5.50;99.90;;;;;;5033471;28;20215;-77
2022/01/13 13:00:17;;;;;;;8.43;5.20;;;5.50;99.90;;;;;;5034160;28;20592;-77
2022/01/13 13:03:05;;;;;;;0.50;0.50;;;5.50;99.90;;;;;;5034555;28;20204;-77
2022/01/13 13:05:38;;;;;;;2.35;1.95;;;5.70;99.90;;;;;;5033838;28;20660;-77
2022/01/13 13:08:07;;;;;;;3.25;1.45;;;5.90;99.90;;;;;;5034074;28;20176;-77
2022/01/13 13:10:33;;;;;;;3.05;1.83;;;6.10;99.90;;;;;;5033623;28;20589;-77
2022/01/13 13:13:01;;;;;;;3.33;3.10;;;6.10;99.90;;;;;;5033843;28;20223;-77
2022/01/13 13:15:40;;;;;;;7.03;3.65;;;6.10;99.90;;;;;;5033817;28;20265;-77
2022/01/13 13:18:10;;;;;;;3.53;1.88;;;6.20;99.90;;;;;;5033579;28;20212;-78